Time;durP1;ratioP1;P1;durP2;ratioP2;P2;SDS_P1;SDS_P2;PMS_P1;PMS_P2;Temp;Humidity;BMP_temperature;BMP_pressure;BME280_temperature;BME280_humidity;BME280_pressure;Samples;Min_cycle;Max_cycle;Signal;HPM_P1;HPM_P2
2023/06/15 00:00:14;;;;;;;7.93;7.13;;;;;;;18.31;100.00;94746.25;5053632;28;20510;-80
2023/06/15 00:02:41;;;;;;;9.60;8.10;;;;;;;18.33;100.00;94746.88;5018428;28;20456;-79
2023/06/15 00:05:10;;;;;;;9.37;8.40;;;;;;;18.42;100.00;94750.28;5053763;28;20447;-79
2023/06/15 00:07:37;;;;;;;9.70;8.67;;;;;;;18.41;100.00;94744.16;5053651;28;20450;-79
2023/06/15 00:10:04;;;;;;;8.80;8.00;;;;;;;18.41;100.00;94744.16;5053643;28;21002;-79
2023/06/15 00:12:32;;;;;;;10.40;9.40;;;;;;;18.40;100.00;94745.16;5053244;28;20525;-79
2023/06/15 00:14:58;;;;;;;10.40;9.30;;;;;;;18.35;100.00;94744.06;5053685;28;20444;-79
2023/06/15 00:17:26;;;;;;;13.50;9.47;;;;;;;18.43;100.00;94746.63;5018029;28;20495;-79
2023/06/15 00:19:53;;;;;;;9.90;7.50;;;;;;;18.50;100.00;94744.88;5018229;28;20448;-79
2023/06/15 00:22:21;;;;;;;8.47;7.63;;;;;;;18.55;100.00;94746.00;5034392;28;20490;-79
2023/06/15 00:24:48;;;;;;;9.13;8.07;;;;;;;18.53;100.00;94740.06;5053094;28;20443;-79
2023/06/15 00:27:15;;;;;;;11.50;7.13;;;;;;;18.55;100.00;94734.56;5053419;28;20449;-79
2023/06/15 00:29:41;;;;;;;9.47;7.70;;;;;;;18.63;100.00;94739.81;5052851;28;20457;-80
2023/06/15 00:32:08;;;;;;;10.17;8.00;;;;;;;18.68;100.00;94744.56;5052928;28;20823;-79
2023/06/15 00:34:35;;;;;;;10.23;8.37;;;;;;;18.72;100.00;94738.69;5053163;28;20852;-79
2023/06/15 00:37:02;;;;;;;12.40;9.40;;;;;;;18.76;100.00;94733.84;5052954;28;20895;-80
2023/06/15 00:39:30;;;;;;;10.03;7.87;;;;;;;18.82;100.00;94735.78;5052895;28;20443;-79
2023/06/15 00:41:57;;;;;;;12.63;8.43;;;;;;;18.84;100.00;94723.94;5053061;28;20454;-79
2023/06/15 00:44:23;;;;;;;10.77;8.80;;;;;;;18.87;100.00;94720.09;5052556;28;20834;-80
2023/06/15 00:46:51;;;;;;;10.07;7.43;;;;;;;18.90;100.00;94717.06;5017656;28;20528;-79
2023/06/15 00:49:17;;;;;;;11.30;8.27;;;;;;;18.94;100.00;94728.16;5052712;28;20932;-80
2023/06/15 00:51:44;;;;;;;9.63;8.43;;;;;;;18.98;100.00;94732.91;5052663;28;20483;-79
2023/06/15 00:54:13;;;;;;;14.53;8.00;;;;;;;19.00;100.00;94724.75;5017395;28;20864;-80
2023/06/15 00:56:42;;;;;;;10.10;8.53;;;;;;;19.02;100.00;94731.53;5052283;28;20576;-80
2023/06/15 00:59:09;;;;;;;7.80;7.00;;;;;;;19.05;100.00;94736.47;5052427;28;20449;-80
2023/06/15 01:01:36;;;;;;;9.67;8.67;;;;;;;19.08;100.00;94727.28;5052567;28;20450;-79
2023/06/15 01:04:03;;;;;;;9.37;7.17;;;;;;;19.10;100.00;94727.97;5052748;28;20863;-79
2023/06/15 01:06:34;;;;;;;11.40;7.70;;;;;;;19.07;100.00;94718.47;5052469;28;20446;-79
2023/06/15 01:09:03;;;;;;;8.73;7.80;;;;;;;19.14;100.00;94722.06;5052424;28;20446;-79
2023/06/15 01:11:31;;;;;;;8.50;7.60;;;;;;;18.95;100.00;94721.81;5052397;28;20450;-79
2023/06/15 01:14:01;;;;;;;8.07;7.20;;;;;;;18.98;100.00;94713.47;5052391;28;20474;-79
2023/06/15 01:16:33;;;;;;;9.57;6.87;;;;;;;18.96;100.00;94710.16;5052027;28;20492;-79
2023/06/15 01:19:01;;;;;;;7.70;6.87;;;;;;;19.02;100.00;94714.75;5033417;28;20987;-79
2023/06/15 01:21:30;;;;;;;8.13;7.07;;;;;;;18.99;100.00;94718.59;5052058;28;20445;-78
2023/06/15 01:24:10;;;;;;;8.23;7.53;;;;;;;18.95;100.00;94712.00;5052127;28;20458;-79
2023/06/15 01:26:40;;;;;;;8.60;7.70;;;;;;;18.92;100.00;94715.03;5052160;28;20866;-79
2023/06/15 01:29:07;;;;;;;9.83;8.83;;;;;;;18.94;100.00;94705.03;5051867;28;20947;-79
2023/06/15 01:31:35;;;;;;;9.13;7.50;;;;;;;18.95;100.00;94696.06;5051360;28;20515;-79
2023/06/15 01:34:01;;;;;;;10.83;9.17;;;;;;;19.01;100.00;94702.44;5052057;28;20449;-80
2023/06/15 01:36:28;;;;;;;8.77;7.63;;;;;;;19.01;100.00;94700.63;5016668;28;20951;-78
2023/06/15 01:38:58;;;;;;;8.77;7.70;;;;;;;19.02;100.00;94704.09;5016806;28;20867;-79
2023/06/15 01:41:26;;;;;;;8.50;7.70;;;;;;;19.04;100.00;94704.75;5051934;28;20459;-79
2023/06/15 01:43:55;;;;;;;8.03;7.30;;;;;;;19.05;100.00;94701.88;5051884;28;20449;-79
2023/06/15 01:46:24;;;;;;;7.90;7.20;;;;;;;19.04;100.00;94708.22;5051720;28;20498;-79
2023/06/15 01:48:51;;;;;;;10.70;7.20;;;;;;;19.06;100.00;94706.19;5051609;28;20442;-79
2023/06/15 01:51:18;;;;;;;7.53;6.83;;;;;;;19.08;100.00;94708.66;5051866;28;20452;-79
2023/06/15 01:53:45;;;;;;;7.63;6.83;;;;;;;19.10;100.00;94702.19;5051673;28;20433;-79
2023/06/15 01:56:12;;;;;;;8.17;6.83;;;;;;;19.10;100.00;94707.50;5051893;28;20600;-79
2023/06/15 01:58:38;;;;;;;9.27;8.40;;;;;;;19.10;100.00;94706.69;5033008;28;20521;-80
2023/06/15 02:01:06;;;;;;;8.07;7.27;;;;;;;19.11;100.00;94706.50;5051655;28;20464;-80
2023/06/15 02:03:33;;;;;;;8.87;7.57;;;;;;;19.10;100.00;94702.19;5051467;28;20906;-79
2023/06/15 02:06:00;;;;;;;7.47;6.77;;;;;;;19.10;100.00;94701.34;5051526;28;20500;-79
2023/06/15 02:08:27;;;;;;;12.00;7.30;;;;;;;19.09;100.00;94700.53;5051590;28;20442;-79
2023/06/15 02:10:53;;;;;;;6.97;6.30;;;;;;;19.05;100.00;94695.75;5051636;28;20449;-79
2023/06/15 02:13:20;;;;;;;7.80;6.90;;;;;;;19.05;100.00;94699.22;5051370;28;20901;-79
2023/06/15 02:15:47;;;;;;;7.90;7.10;;;;;;;19.02;100.00;94699.59;5051384;28;20502;-79
2023/06/15 02:18:16;;;;;;;8.27;6.63;;;;;;;19.06;100.00;94700.06;5051551;28;20448;-79
2023/06/15 02:20:43;;;;;;;6.70;6.00;;;;;;;19.08;100.00;94703.34;5051698;28;20445;-79
2023/06/15 02:23:11;;;;;;;7.57;5.90;;;;;;;19.07;100.00;94702.53;5051699;28;20495;-79
2023/06/15 02:25:38;;;;;;;7.87;7.13;;;;;;;19.10;100.00;94704.00;5051511;28;20540;-78
2023/06/15 02:28:05;;;;;;;9.30;7.20;;;;;;;19.10;100.00;94688.88;5051416;28;20458;-79
2023/06/15 02:30:33;;;;;;;7.73;6.80;;;;;;;19.10;100.00;94691.53;5051341;28;20448;-79
2023/06/15 02:33:00;;;;;;;8.83;6.60;;;;;;;19.02;100.00;94688.97;5051668;28;20923;-78
2023/06/15 02:35:29;;;;;;;10.10;7.23;;;;;;;18.98;100.00;94693.00;5051486;28;20497;-80
2023/06/15 02:37:56;;;;;;;8.57;6.90;;;;;;;19.01;100.00;94697.13;5051504;28;20489;-80
2023/06/15 02:40:23;;;;;;;14.90;7.10;;;;;;;19.00;100.00;94696.31;5051329;28;20479;-81
2023/06/15 02:42:50;;;;;;;7.83;7.10;;;;;;;19.05;100.00;94698.41;5055047;28;20529;-79
2023/06/15 02:45:17;;;;;;;8.20;7.30;;;;;;;19.06;100.00;94684.91;5019882;28;20452;-80
2023/06/15 02:47:44;;;;;;;9.97;6.57;;;;;;;19.06;100.00;94694.72;5055258;28;20445;-79
2023/06/15 02:50:11;;;;;;;6.63;6.00;;;;;;;19.08;100.00;94685.59;5055159;28;20445;-80
2023/06/15 02:52:40;;;;;;;11.10;6.57;;;;;;;19.10;100.00;94693.38;5019722;28;20471;-80
2023/06/15 02:55:08;;;;;;;6.67;5.83;;;;;;;19.08;100.00;94685.59;5054995;28;20879;-80
2023/06/15 02:57:35;;;;;;;9.37;6.30;;;;;;;19.07;100.00;94689.22;5055013;28;20987;-80
2023/06/15 03:00:03;;;;;;;7.10;6.23;;;;;;;19.05;100.00;94693.09;5054769;28;20477;-80
2023/06/15 03:02:30;;;;;;;8.27;5.63;;;;;;;18.97;100.00;94683.38;5054890;28;20446;-79
2023/06/15 03:04:57;;;;;;;7.57;6.60;;;;;;;18.94;100.00;94686.44;5054984;28;20447;-81
2023/06/15 03:07:25;;;;;;;13.50;6.90;;;;;;;18.73;100.00;94694.31;5054829;28;20944;-81
2023/06/15 03:09:53;;;;;;;7.60;6.90;;;;;;;18.57;100.00;94695.31;5054663;28;20495;-81
2023/06/15 03:12:20;;;;;;;9.30;7.03;;;;;;;18.27;100.00;94689.19;5054365;28;20468;-80
2023/06/15 03:14:50;;;;;;;7.13;6.43;;;;;;;18.39;100.00;94692.19;5054859;28;20463;-80
2023/06/15 03:17:17;;;;;;;9.47;7.03;;;;;;;18.46;100.00;94688.63;5054536;28;20490;-81
2023/06/15 03:19:46;;;;;;;6.27;5.77;;;;;;;18.51;100.00;94696.88;5054524;28;20449;-81
2023/06/15 03:22:13;;;;;;;7.10;5.37;;;;;;;18.61;100.00;94690.47;5054583;28;20461;-79
2023/06/15 03:24:41;;;;;;;10.33;6.80;;;;;;;18.68;100.00;94691.41;5054372;28;20452;-79
2023/06/15 03:27:10;;;;;;;8.10;7.30;;;;;;;18.78;100.00;94689.28;5019649;28;20501;-80
2023/06/15 03:29:37;;;;;;;7.20;6.57;;;;;;;18.76;100.00;94685.97;5054643;28;20529;-80
2023/06/15 03:32:06;;;;;;;9.87;6.50;;;;;;;18.77;100.00;94682.31;5054185;28;20533;-80
2023/06/15 03:34:32;;;;;;;8.40;7.60;;;;;;;18.81;100.00;94680.97;5054001;28;20446;-80
2023/06/15 03:36:59;;;;;;;10.80;7.03;;;;;;;18.82;100.00;94682.59;5054081;28;20495;-81
2023/06/15 03:39:26;;;;;;;7.90;7.17;;;;;;;18.84;100.00;94684.06;5054012;28;20444;-80
2023/06/15 03:41:53;;;;;;;8.20;7.47;;;;;;;18.99;100.00;94675.22;5054378;28;20519;-80
2023/06/15 03:44:21;;;;;;;7.73;6.93;;;;;;;19.38;100.00;94680.19;5053923;28;20450;-80
2023/06/15 03:46:48;;;;;;;7.10;6.40;;;;;;;19.84;100.00;94677.16;5054315;28;20512;-81
2023/06/15 03:49:15;;;;;;;7.97;6.77;;;;;;;20.29;100.00;94679.34;5054504;28;20456;-79
2023/06/15 03:51:42;;;;;;;7.07;6.47;;;;;;;20.57;100.00;94687.34;5054139;28;20450;-80
2023/06/15 03:54:08;;;;;;;7.20;6.60;;;;;;;20.95;100.00;94692.25;5053391;28;20442;-79
2023/06/15 03:56:36;;;;;;;6.83;6.30;;;;;;;21.26;100.00;94689.13;5053762;28;20449;-79
2023/06/15 03:59:02;;;;;;;7.43;6.73;;;;;;;21.59;100.00;94703.38;5053855;28;20459;-79
2023/06/15 04:01:30;;;;;;;6.90;6.30;;;;;;;21.86;100.00;94711.44;5052396;28;20470;-79
2023/06/15 04:03:57;;;;;;;8.63;5.70;;;;;;;21.93;99.89;94699.72;5053836;28;20449;-80
2023/06/15 04:06:24;;;;;;;11.73;7.03;;;;;;;22.12;98.43;94710.66;5053373;28;20478;-79
2023/06/15 04:08:51;;;;;;;7.20;6.10;;;;;;;22.28;98.56;94709.44;5053355;28;20447;-78
2023/06/15 04:11:18;;;;;;;9.07;6.07;;;;;;;22.34;97.33;94700.59;5053534;28;20531;-79
2023/06/15 04:13:45;;;;;;;7.50;6.80;;;;;;;22.37;96.56;94716.22;5053235;28;20476;-80
2023/06/15 04:16:12;;;;;;;8.23;7.60;;;;;;;21.85;98.04;94701.78;5053335;28;20486;-81
2023/06/15 04:18:40;;;;;;;8.37;7.57;;;;;;;21.22;100.00;94694.00;5018011;28;20488;-79
2023/06/15 04:21:07;;;;;;;8.83;8.00;;;;;;;20.78;100.00;94702.41;5053137;28;20511;-80
2023/06/15 04:23:34;;;;;;;9.50;8.60;;;;;;;20.51;100.00;94705.94;5053712;28;20446;-81
2023/06/15 04:26:03;;;;;;;9.07;8.27;;;;;;;20.36;100.00;94693.53;5053336;28;20481;-81
2023/06/15 04:28:30;;;;;;;9.83;8.77;;;;;;;20.30;100.00;94701.50;5053257;28;20496;-79
2023/06/15 04:31:07;;;;;;;9.50;8.50;;;;;;;20.22;100.00;94697.13;5053157;28;20458;-79
2023/06/15 04:33:34;;;;;;;9.90;8.20;;;;;;;19.95;100.00;94695.25;5052840;28;20451;-80
2023/06/15 04:36:03;;;;;;;9.10;8.30;;;;;;;19.86;100.00;94691.91;5053576;28;20504;-79
2023/06/15 04:38:30;;;;;;;16.20;9.87;;;;;;;19.74;100.00;94699.59;5052773;28;20572;-81
2023/06/15 04:40:57;;;;;;;13.80;9.57;;;;;;;19.72;100.00;94685.66;5017691;28;20941;-81
2023/06/15 04:43:24;;;;;;;11.10;8.40;;;;;;;19.83;100.00;94691.47;5053384;28;20440;-81
2023/06/15 04:45:51;;;;;;;10.30;9.30;;;;;;;19.43;100.00;94691.06;5054122;28;20459;-79
2023/06/15 04:48:19;;;;;;;40.93;36.60;;;;;;;19.41;100.00;94693.94;5053708;28;20450;-80
2023/06/15 04:50:48;;;;;;;47.20;42.20;;;;;;;19.60;100.00;94697.81;5054661;28;20458;-80
2023/06/15 04:53:18;;;;;;;35.33;29.57;;;;;;;19.52;100.00;94697.91;5053920;28;20932;-80
2023/06/15 04:55:45;;;;;;;32.00;27.67;;;;;;;19.49;100.00;94703.63;5054782;28;20487;-80
2023/06/15 04:58:13;;;;;;;21.63;11.77;;;;;;;19.63;100.00;94707.25;5054160;28;20514;-80
2023/06/15 05:00:41;;;;;;;18.13;13.13;;;;;;;19.98;100.00;94709.03;5054133;28;20435;-79
2023/06/15 05:03:08;;;;;;;12.67;11.37;;;;;;;20.30;100.00;94717.47;5054407;28;20434;-79
2023/06/15 05:05:35;;;;;;;11.30;9.53;;;;;;;20.23;100.00;94709.41;5033048;28;20443;-80
2023/06/15 05:08:02;;;;;;;9.90;8.90;;;;;;;20.34;100.00;94711.56;5033681;28;20452;-79
2023/06/15 05:10:31;;;;;;;9.50;8.50;;;;;;;20.11;100.00;94709.13;5034035;28;20451;-79
2023/06/15 05:12:58;;;;;;;9.40;8.43;;;;;;;20.23;100.00;94714.75;5047969;28;20568;-80
2023/06/15 05:15:25;;;;;;;9.37;7.67;;;;;;;20.26;100.00;94716.22;5053821;28;20455;-79
2023/06/15 05:17:51;;;;;;;9.60;8.60;;;;;;;20.08;100.00;94714.03;5054259;28;20544;-79
2023/06/15 05:20:18;;;;;;;9.80;8.83;;;;;;;19.89;100.00;94714.66;5053919;28;20446;-79
2023/06/15 05:22:45;;;;;;;9.83;8.93;;;;;;;19.91;100.00;94716.13;5053894;28;20436;-80
2023/06/15 05:25:12;;;;;;;14.40;8.60;;;;;;;19.63;100.00;94716.06;5053630;28;20439;-79
2023/06/15 05:27:41;;;;;;;14.53;8.87;;;;;;;19.63;100.00;94708.06;5048183;28;20454;-80
2023/06/15 05:30:11;;;;;;;15.87;9.07;;;;;;;19.28;100.00;94712.41;5052153;28;20913;-79
2023/06/15 05:32:39;;;;;;;12.27;9.40;;;;;;;19.55;100.00;94713.53;5053826;28;20434;-80
2023/06/15 05:35:07;;;;;;;10.57;9.57;;;;;;;19.56;100.00;94719.69;5053740;28;20448;-79
2023/06/15 05:37:34;;;;;;;16.00;9.97;;;;;;;19.56;100.00;94719.69;5030959;28;20492;-79
2023/06/15 05:40:02;;;;;;;11.13;10.00;;;;;;;19.27;100.00;94717.91;5052965;28;20423;-80
2023/06/15 05:42:29;;;;;;;9.77;8.77;;;;;;;19.24;100.00;94718.28;5051750;28;20492;-80
2023/06/15 05:44:57;;;;;;;12.80;10.40;;;;;;;19.16;100.00;94725.38;5051792;28;20440;-80
2023/06/15 05:47:24;;;;;;;12.60;11.20;;;;;;;19.18;100.00;94725.19;5051730;28;20971;-80
2023/06/15 05:49:51;;;;;;;12.33;10.60;;;;;;;19.17;100.00;94726.19;5051809;28;20457;-80
2023/06/15 05:52:19;;;;;;;12.67;11.03;;;;;;;19.24;100.00;94734.25;5051595;28;20835;-80
2023/06/15 05:54:46;;;;;;;12.90;11.60;;;;;;;19.29;100.00;94732.66;5051713;28;20445;-80
2023/06/15 05:57:13;;;;;;;16.17;13.43;;;;;;;19.29;100.00;94734.50;5052057;28;20687;-79
2023/06/15 05:59:40;;;;;;;11.90;10.60;;;;;;;19.22;100.00;94730.94;5051709;28;20442;-80
2023/06/15 06:02:08;;;;;;;13.20;11.33;;;;;;;19.35;100.00;94731.09;5051985;28;20853;-80
2023/06/15 06:04:35;;;;;;;15.37;11.77;;;;;;;19.47;100.00;94727.75;5051705;28;20450;-81
2023/06/15 06:07:05;;;;;;;11.60;10.37;;;;;;;19.67;100.00;94725.34;5051640;28;20470;-80
2023/06/15 06:09:32;;;;;;;14.70;12.30;;;;;;;19.74;100.00;94725.41;5051486;28;20483;-81
2023/06/15 06:12:00;;;;;;;16.20;12.50;;;;;;;19.89;100.00;94717.34;5051531;28;20446;-79
2023/06/15 06:14:27;;;;;;;15.13;10.97;;;;;;;19.98;100.00;94724.19;5051793;28;20445;-80
2023/06/15 06:16:57;;;;;;;13.00;11.20;;;;;;;20.02;100.00;94722.78;5053660;28;20443;-81
2023/06/15 06:19:25;;;;;;;14.20;11.87;;;;;;;20.15;100.00;94725.56;5055527;28;20885;-81
2023/06/15 06:21:52;;;;;;;14.10;12.17;;;;;;;20.23;100.00;94713.91;5055686;28;20438;-81
2023/06/15 06:24:18;;;;;;;13.03;11.37;;;;;;;20.17;100.00;94726.19;5055740;28;20455;-80
2023/06/15 06:26:45;;;;;;;15.50;12.63;;;;;;;20.45;100.00;94728.06;5055651;28;20449;-81
2023/06/15 06:29:12;;;;;;;12.53;10.50;;;;;;;20.60;100.00;94726.13;5055904;28;20455;-81
2023/06/15 06:31:39;;;;;;;12.57;11.30;;;;;;;20.70;100.00;94734.59;5055469;28;20460;-81
2023/06/15 06:34:05;;;;;;;12.67;11.47;;;;;;;20.61;100.00;94725.09;5055368;28;20453;-80
2023/06/15 06:36:34;;;;;;;12.80;11.50;;;;;;;20.60;100.00;94718.94;5055653;28;20924;-81
2023/06/15 06:39:01;;;;;;;14.33;12.83;;;;;;;20.53;100.00;94730.56;5020312;28;20481;-81
2023/06/15 06:41:27;;;;;;;14.20;12.77;;;;;;;20.63;100.00;94725.72;5055467;28;20781;-81
2023/06/15 06:43:54;;;;;;;15.27;11.87;;;;;;;20.69;100.00;94730.28;5036547;28;20453;-81
2023/06/15 06:46:22;;;;;;;16.20;11.90;;;;;;;20.79;100.00;94730.75;5055078;28;20567;-81
2023/06/15 06:48:49;;;;;;;15.23;11.60;;;;;;;20.87;100.00;94733.25;5055242;28;20459;-81
2023/06/15 06:51:16;;;;;;;13.07;11.63;;;;;;;20.77;100.00;94732.78;5054883;28;20448;-81
2023/06/15 06:53:44;;;;;;;13.70;12.30;;;;;;;20.66;100.00;94742.16;5055275;28;20541;-81
2023/06/15 06:56:11;;;;;;;23.33;13.73;;;;;;;20.75;100.00;94742.81;5055893;28;20838;-81
2023/06/15 06:58:38;;;;;;;13.57;12.23;;;;;;;20.77;100.00;94735.44;5055111;28;20888;-81
2023/06/15 07:01:05;;;;;;;15.13;13.57;;;;;;;20.89;100.00;94731.22;5054910;28;20504;-81
2023/06/15 07:03:31;;;;;;;17.70;12.83;;;;;;;20.92;100.00;94736.16;5055123;28;20534;-81
2023/06/15 07:05:59;;;;;;;13.57;12.37;;;;;;;20.96;100.00;94729.41;5055058;28;20445;-81
2023/06/15 07:08:26;;;;;;;17.13;12.80;;;;;;;20.94;100.00;94739.44;5054828;28;20444;-81
2023/06/15 07:10:54;;;;;;;14.73;13.13;;;;;;;20.94;100.00;94742.13;5054760;28;20456;-81
2023/06/15 07:13:21;;;;;;;13.60;12.30;;;;;;;20.83;100.00;94744.53;5054920;28;20482;-81
2023/06/15 07:15:49;;;;;;;16.80;15.10;;;;;;;20.81;100.00;94742.03;5054920;28;20454;-81
2023/06/15 07:18:16;;;;;;;16.00;14.40;;;;;;;20.91;100.00;94731.84;5054691;28;20491;-80
2023/06/15 07:20:43;;;;;;;15.50;13.90;;;;;;;20.79;100.00;94728.06;5054799;28;20435;-81
2023/06/15 07:23:10;;;;;;;14.03;12.53;;;;;;;20.89;100.00;94720.56;5019230;28;20939;-81
2023/06/15 07:25:36;;;;;;;14.33;12.80;;;;;;;20.94;100.00;94734.13;5054660;28;20818;-81
2023/06/15 07:28:05;;;;;;;15.73;12.87;;;;;;;20.87;100.00;94733.25;5053449;28;20446;-80
2023/06/15 07:30:32;;;;;;;15.60;13.97;;;;;;;20.82;100.00;94735.72;5019080;28;20973;-81
2023/06/15 07:32:58;;;;;;;17.03;15.43;;;;;;;20.86;100.00;94734.28;5054308;28;20511;-81
2023/06/15 07:35:25;;;;;;;17.73;15.00;;;;;;;20.94;100.00;94734.13;5054424;28;20444;-81
2023/06/15 07:37:52;;;;;;;16.83;15.10;;;;;;;20.69;100.00;94738.28;5053995;28;20488;-81
2023/06/15 07:40:19;;;;;;;17.67;13.57;;;;;;;20.60;100.00;94737.63;5054252;28;20455;-80
2023/06/15 07:42:45;;;;;;;17.60;14.77;;;;;;;20.65;100.00;94735.19;5054012;28;20448;-80
2023/06/15 07:45:14;;;;;;;16.53;13.83;;;;;;;20.49;100.00;94740.81;5053669;28;20863;-80
2023/06/15 07:47:42;;;;;;;16.77;13.70;;;;;;;20.62;100.00;94734.75;5018860;28;20525;-81
2023/06/15 07:50:09;;;;;;;17.23;13.03;;;;;;;20.59;100.00;94735.97;5053959;28;20477;-81
2023/06/15 07:52:36;;;;;;;17.70;14.93;;;;;;;20.42;100.00;94732.75;4986282;28;20441;-80
2023/06/15 07:55:03;;;;;;;14.17;12.77;;;;;;;20.49;100.00;94729.31;5053782;28;20959;-80
2023/06/15 07:57:30;;;;;;;14.80;13.30;;;;;;;20.53;100.00;94727.91;5053807;28;20447;-80
2023/06/15 07:59:58;;;;;;;15.43;14.07;;;;;;;20.53;100.00;94735.91;5053623;28;20488;-81
2023/06/15 08:02:26;;;;;;;15.13;13.73;;;;;;;20.49;100.00;94726.66;5053915;28;20500;-80
2023/06/15 08:04:53;;;;;;;16.23;14.40;;;;;;;20.52;100.00;94729.75;5053794;28;20458;-81
2023/06/15 08:07:19;;;;;;;14.97;13.67;;;;;;;20.49;100.00;94731.97;5053531;28;20447;-81
2023/06/15 08:09:46;;;;;;;15.07;13.47;;;;;;;20.70;100.00;94730.09;5054253;28;20493;-81
2023/06/15 08:12:13;;;;;;;17.80;14.27;;;;;;;20.71;100.00;94730.91;5053629;28;20478;-80
2023/06/15 08:14:40;;;;;;;15.40;13.67;;;;;;;20.70;100.00;94737.25;5053511;28;20445;-80
2023/06/15 08:17:07;;;;;;;14.63;13.23;;;;;;;20.73;100.00;94731.53;5053656;28;20444;-81
2023/06/15 08:19:35;;;;;;;14.47;13.07;;;;;;;20.86;100.00;94728.13;5053517;28;20476;-81
2023/06/15 08:22:02;;;;;;;15.67;13.37;;;;;;;20.88;100.00;94726.91;5053208;28;21010;-80
2023/06/15 08:24:29;;;;;;;14.93;13.47;;;;;;;20.79;100.00;94728.06;5053268;28;20962;-81
2023/06/15 08:26:56;;;;;;;14.27;13.00;;;;;;;20.87;100.00;94730.59;5053393;28;20883;-81
2023/06/15 08:29:23;;;;;;;19.40;15.30;;;;;;;20.85;100.00;94740.66;5053374;28;20446;-80
2023/06/15 08:31:49;;;;;;;15.97;14.20;;;;;;;20.95;100.00;94734.94;5053376;28;20464;-80
2023/06/15 08:34:16;;;;;;;22.27;15.87;;;;;;;21.06;100.00;94734.38;5053546;28;20844;-81
2023/06/15 08:36:45;;;;;;;15.20;13.60;;;;;;;21.06;100.00;94742.38;5053308;28;20462;-80
2023/06/15 08:39:11;;;;;;;14.80;13.30;;;;;;;20.98;100.00;94732.69;5053290;28;20973;-80
2023/06/15 08:41:38;;;;;;;18.23;15.67;;;;;;;20.96;100.00;94734.75;5053202;28;20443;-80
2023/06/15 08:44:05;;;;;;;15.87;13.67;;;;;;;20.99;100.00;94739.69;5052913;28;20448;-81
2023/06/15 08:46:33;;;;;;;15.33;13.70;;;;;;;21.14;100.00;94736.06;5053202;28;20451;-81
2023/06/15 08:49:01;;;;;;;16.23;14.53;;;;;;;21.40;100.00;94738.06;5052961;28;20530;-81
2023/06/15 08:51:28;;;;;;;29.13;13.83;;;;;;;21.51;100.00;94745.47;5017915;28;20464;-80
2023/06/15 08:53:56;;;;;;;14.57;13.03;;;;;;;21.79;100.00;94743.50;5017636;28;20454;-80
2023/06/15 08:56:23;;;;;;;13.57;12.17;;;;;;;21.90;100.00;94744.75;5052827;28;20446;-80
2023/06/15 08:58:50;;;;;;;18.03;14.47;;;;;;;22.14;100.00;94752.19;5052863;28;20490;-79
2023/06/15 09:01:21;;;;;;;16.97;13.47;;;;;;;22.31;100.00;94749.13;5052704;28;20852;-80
2023/06/15 09:03:51;;;;;;;17.57;14.37;;;;;;;22.48;100.00;94747.69;5052465;28;20445;-80
2023/06/15 09:06:19;;;;;;;17.90;14.67;;;;;;;22.44;97.41;94757.16;5052390;28;20451;-80
2023/06/15 09:08:46;;;;;;;15.30;13.80;;;;;;;22.50;97.40;94749.09;5052723;28;20524;-80
2023/06/15 09:11:14;;;;;;;15.40;13.63;;;;;;;22.53;97.35;94754.03;5052392;28;20450;-80
2023/06/15 09:13:42;;;;;;;16.30;13.97;;;;;;;22.65;98.82;94759.59;5052310;28;20505;-81
2023/06/15 09:16:09;;;;;;;13.37;12.17;;;;;;;22.55;93.58;94756.50;5052245;28;20443;-80
2023/06/15 09:18:44;;;;;;;13.03;11.80;;;;;;;22.58;93.05;94764.16;5017543;28;20536;-80
2023/06/15 09:21:13;;;;;;;15.60;12.50;;;;;;;22.54;92.53;94762.88;5052351;28;20451;-79
2023/06/15 09:23:41;;;;;;;13.00;11.70;;;;;;;22.65;93.57;94764.13;5052287;28;20523;-80
2023/06/15 09:26:09;;;;;;;14.63;12.23;;;;;;;22.73;95.86;94755.88;4968450;28;20521;-80
2023/06/15 09:28:45;;;;;;;14.13;12.77;;;;;;;22.77;97.57;94747.22;5052492;28;20485;-80
2023/06/15 09:31:12;;;;;;;10.53;9.57;;;;;;;22.79;93.65;94752.38;5052175;28;20491;-80
2023/06/15 09:33:39;;;;;;;11.50;10.40;;;;;;;22.84;94.71;94756.13;5051995;28;20866;-80
2023/06/15 09:36:07;;;;;;;15.30;11.40;;;;;;;22.81;95.96;94753.84;5052038;28;20453;-80
2023/06/15 09:38:40;;;;;;;13.17;11.87;;;;;;;22.76;96.87;94748.25;5052424;28;20474;-79
2023/06/15 09:41:08;;;;;;;13.80;12.37;;;;;;;22.72;96.62;94749.72;5052268;28;20453;-80
2023/06/15 09:43:39;;;;;;;12.87;10.93;;;;;;;22.74;98.33;94742.31;5051679;28;20508;-80
2023/06/15 09:46:10;;;;;;;11.50;9.90;;;;;;;22.69;96.06;94744.78;5051774;28;20451;-79
2023/06/15 09:48:38;;;;;;;12.87;11.50;;;;;;;22.70;97.89;94746.44;5052159;28;20435;-79
2023/06/15 09:51:05;;;;;;;12.70;11.60;;;;;;;22.63;98.67;94744.81;5051685;28;20520;-80
2023/06/15 09:53:32;;;;;;;12.90;11.70;;;;;;;22.48;98.49;94753.03;5051843;28;20505;-80
2023/06/15 09:56:00;;;;;;;16.17;14.40;;;;;;;22.37;99.62;94746.47;5051716;28;20449;-80
2023/06/15 09:58:27;;;;;;;14.10;12.70;;;;;;;22.29;100.00;94743.19;5051556;28;20447;-80
2023/06/15 10:00:57;;;;;;;14.00;11.70;;;;;;;22.11;100.00;94751.78;5051762;28;20501;-79
2023/06/15 10:03:25;;;;;;;12.97;11.63;;;;;;;21.98;100.00;94751.75;5052267;28;20443;-80
2023/06/15 10:05:56;;;;;;;25.70;14.80;;;;;;;21.87;100.00;94747.81;5051760;28;20865;-80
2023/06/15 10:08:25;;;;;;;17.90;16.20;;;;;;;21.83;100.00;94743.91;5017065;28;20498;-79
2023/06/15 10:10:55;;;;;;;20.03;15.70;;;;;;;21.78;100.00;94751.72;5051904;28;20446;-80
2023/06/15 10:13:26;;;;;;;20.23;17.27;;;;;;;21.66;100.00;94743.44;5051566;28;20484;-79
2023/06/15 10:16:00;;;;;;;21.80;18.17;;;;;;;21.59;100.00;94746.09;5051847;28;20547;-79
2023/06/15 10:18:29;;;;;;;20.30;18.20;;;;;;;21.54;100.00;94748.56;5051452;28;20454;-79
2023/06/15 10:21:00;;;;;;;21.57;19.00;;;;;;;21.41;100.00;94751.19;5051554;28;20541;-79
2023/06/15 10:23:29;;;;;;;25.67;20.83;;;;;;;21.34;100.00;94761.00;5051792;28;20445;-79
2023/06/15 10:25:58;;;;;;;25.47;20.00;;;;;;;21.18;100.00;94759.50;5051644;28;20444;-79
2023/06/15 10:28:26;;;;;;;24.37;21.60;;;;;;;21.10;100.00;94762.28;5051738;28;20838;-79
2023/06/15 10:31:01;;;;;;;33.03;23.33;;;;;;;20.97;100.00;94762.25;5051336;28;20462;-79
2023/06/15 10:33:36;;;;;;;25.77;19.63;;;;;;;20.76;100.00;94757.81;5051563;28;20459;-79
2023/06/15 10:36:11;;;;;;;24.67;19.53;;;;;;;20.66;100.00;94762.66;5051376;28;20450;-79
2023/06/15 10:38:47;;;;;;;24.80;19.50;;;;;;;20.56;100.00;94762.19;5051162;28;20543;-79
2023/06/15 10:41:15;;;;;;;24.43;20.60;;;;;;;20.49;100.00;94767.47;5051436;28;20489;-79
2023/06/15 10:43:57;;;;;;;24.13;19.13;;;;;;;20.39;100.00;94766.94;5051235;28;20525;-81
2023/06/15 10:46:28;;;;;;;23.93;19.10;;;;;;;20.34;100.00;94764.88;5051219;28;20542;-78
2023/06/15 10:48:56;;;;;;;24.90;17.80;;;;;;;20.41;100.00;94768.44;5050986;28;21003;-80
2023/06/15 10:51:22;;;;;;;26.40;19.70;;;;;;;20.47;100.00;94771.34;5051054;28;20450;-79
2023/06/15 10:53:49;;;;;;;23.07;19.47;;;;;;;20.54;100.00;94773.06;5051263;28;20447;-79
2023/06/15 10:56:17;;;;;;;25.47;19.03;;;;;;;20.62;100.00;94766.75;5051356;28;20455;-79
2023/06/15 10:58:55;;;;;;;25.60;19.70;;;;;;;20.64;100.00;94756.72;5051314;28;20443;-79
2023/06/15 11:01:23;;;;;;;23.60;19.47;;;;;;;20.58;100.00;94750.31;5051388;28;20443;-79
2023/06/15 11:03:52;;;;;;;28.57;21.60;;;;;;;20.59;100.00;94743.97;5052688;28;21020;-79
2023/06/15 11:06:21;;;;;;;27.70;21.90;;;;;;;20.63;100.00;94745.22;5054776;28;20958;-79
2023/06/15 11:08:49;;;;;;;23.50;20.20;;;;;;;20.64;100.00;94743.38;5054518;28;20451;-79
2023/06/15 11:11:20;;;;;;;25.30;20.03;;;;;;;20.77;100.00;94743.44;5054985;28;20836;-79
2023/06/15 11:13:59;;;;;;;28.90;22.40;;;;;;;20.93;100.00;94739.66;5054287;28;20848;-80
2023/06/15 11:16:28;;;;;;;25.60;20.63;;;;;;;20.98;100.00;94740.69;5054629;28;20506;-79
2023/06/15 11:19:15;;;;;;;31.93;23.63;;;;;;;21.07;100.00;94735.19;5054223;28;21039;-79